Latest Weather Observations for Oakey

IDQ60901

Issued at 11:11 pm EST Wednesday 27 January 2021 (issued every 10 minutes, with the page automatically refreshed every 10 minutes)

About weather observations | Map of Brisbane area stations | Latest observations for Brisbane area | Other Formats
Station Details ID: 041359 Name: OAKEY AERO Lat: -27.40 Lon: 151.74 Height: 405.69 m
Data from the previous 72 hours. | See also: Recent months at Oakey
Date/Time
EST
Temp
°C
App
Temp
°C
Dew
Point
°C
Rel
Hum
%
Delta-T
°C
Wind Press
QNH
hPa
Press
MSL
hPa
Rain since
9am
mm
Dir  Spd
km/h
Gust
km/h
Spd
kts
Gust
kts
27/11:00pm 23.3 22.8 19.0 77 2.8 ESE 20 28 11 15 1012.0 1009.7 0.0
27/10:30pm 23.8 23.5 19.1 75 3.0 ENE 19 28 10 15 1011.8 1009.4 0.0
27/10:00pm 24.1 24.2 19.2 74 3.2 ENE 17 28 9 15 1012.0 1009.7 0.0
27/09:30pm 24.8 23.9 19.0 70 3.8 ENE 22 30 12 16 1011.7 1009.3 0.0
27/09:00pm 25.4 24.7 18.6 66 4.4 ENE 20 26 11 14 1011.3 1008.9 0.0
27/08:30pm 26.1 23.9 18.8 64 4.7 ENE 28 35 15 19 1011.0 1008.6 0.0
27/08:00pm 26.7 24.7 19.1 63 5.0 ENE 28 37 15 20 1010.6 1008.2 0.0
27/07:30pm 27.4 25.7 18.9 59 5.5 ENE 26 35 14 19 1010.2 1007.9 0.0
27/07:00pm 28.6 26.5 16.2 47 7.8 ENE 22 30 12 16 1009.9 1007.6 0.0
27/06:30pm 29.6 26.9 15.7 43 8.7 ENE 24 32 13 17 1009.4 1007.0 0.0
27/06:00pm 30.6 27.7 15.1 39 9.7 ENE 24 33 13 18 1009.2 1006.8 0.0
27/05:30pm 31.7 29.6 14.8 36 10.5 ENE 19 30 10 16 1008.9 1006.5 0.0
27/05:00pm 32.1 28.3 14.7 35 10.9 E 28 35 15 19 1008.5 1006.1 0.0
27/04:30pm 32.6 28.9 13.8 32 11.6 E 26 37 14 20 1008.3 1005.9 0.0
27/04:00pm 32.9 30.7 15.0 34 11.3 E 20 30 11 16 1008.2 1005.8 0.0
27/03:30pm 33.0 29.2 14.6 33 11.5 ESE 28 41 15 22 1008.3 1005.9 0.0
27/03:00pm 33.8 31.4 15.3 33 11.7 ESE 22 32 12 17 1008.3 1005.9 0.0
27/02:30pm 33.5 31.5 15.5 34 11.4 ESE 20 32 11 17 1008.5 1006.1 0.0
27/02:00pm 32.2 29.3 15.2 35 10.7 ESE 24 32 13 17 1008.7 1006.3 0.0
27/01:30pm 33.6 31.3 15.6 34 11.4 SE 22 35 12 19 1008.9 1006.5 0.0
27/01:00pm 31.8 31.0 14.0 34 11.0 E 11 17 6 9 1009.2 1006.8 0.0
27/12:30pm 32.5 30.6 14.1 32 11.4 SE 17 26 9 14 1009.5 1007.1 0.0
27/12:00pm 32.2 30.3 14.3 33 11.1 ESE 17 24 9 13 1009.8 1007.5 0.0
27/11:30am 31.2 30.2 15.6 39 9.8 ESE 15 28 8 15 1010.1 1007.8 0.0
27/11:00am 30.6 30.4 15.8 40 9.3 N 11 22 6 12 1010.4 1008.0 0.0
27/10:30am 29.5 29.3 15.6 43 8.7 NNE 11 19 6 10 1010.8 1008.4 0.0
27/10:00am 28.6 27.9 15.5 45 8.2 NNE 13 22 7 12 1010.9 1008.5 0.0
27/09:30am 28.2 28.3 16.5 49 7.4 NE 11 19 6 10 1011.0 1008.6 0.0
27/09:00am 27.0 26.8 16.6 53 6.6 NE 13 19 7 10 1011.0 1008.6 0.0
27/08:30am 25.8 25.9 16.6 56 5.8 NE 11 19 6 10 1011.2 1008.8 0.0
27/08:00am 24.4 25.5 17.9 67 4.1 ENE 9 17 5 9 1011.1 1008.7 0.0
27/07:30am 22.6 23.1 17.5 73 3.2 ENE 11 15 6 8 1011.1 1008.7 0.0
27/07:00am 21.5 22.1 17.7 79 2.4 E 11 15 6 8 1010.8 1008.4 0.0
27/06:30am 20.6 21.4 18.2 86 1.5 E 11 13 6 7 1010.5 1008.1 0.0
27/06:00am 18.9 20.2 18.4 97 0.3 E 9 9 5 5 1010.1 1007.8 0.0
27/05:30am 17.4 18.0 16.8 96 0.4 E 9 11 5 6 1009.6 1007.2 0.0
27/05:00am 17.8 18.5 17.0 95 0.5 E 9 13 5 7 1009.4 1007.0 0.0
27/04:30am 18.0 18.3 17.0 94 0.6 E 11 13 6 7 1009.3 1006.9 0.0
27/04:00am 18.3 19.0 17.1 93 0.7 E 9 11 5 6 1009.2 1006.8 0.0
27/03:30am 18.8 19.3 17.5 92 0.8 ENE 11 15 6 8 1009.0 1006.6 0.0
27/03:00am 19.0 19.6 17.7 92 0.8 ENE 11 15 6 8 1008.9 1006.5 0.0
27/02:30am 19.2 20.6 17.7 91 0.9 ENE 7 11 4 6 1009.1 1006.7 0.0
27/02:00am 19.4 19.2 17.7 90 1.1 E 15 17 8 9 1008.8 1006.4 0.0
27/01:30am 19.6 19.4 17.6 88 1.2 E 15 19 8 10 1009.0 1006.6 0.0
27/01:00am 20.1 19.5 17.5 85 1.6 ENE 17 22 9 12 1009.2 1006.8 0.0
27/12:30am 20.5 19.5 17.5 83 1.9 ENE 19 24 10 13 1009.5 1007.1 0.0
27/12:00am 21.0 19.8 17.6 81 2.1 NE 20 26 11 14 1009.6 1007.2 0.0
 
Date/Time
EST
Temp
°C
App
Temp
°C
Dew
Point
°C
Rel
Hum
%
Delta-T
°C
Wind Press
QNH
hPa
Press
MSL
hPa
Rain since
9am
mm
Dir  Spd
km/h
Gust
km/h
Spd
kts
Gust
kts
26/11:30pm 21.5 20.3 17.5 78 2.5 NE 20 24 11 13 1009.6 1007.2 0.0
26/11:00pm 22.1 20.9 17.5 75 2.9 NE 20 24 11 13 1009.5 1007.1 0.0
26/10:30pm 22.2 21.8 17.1 73 3.2 ENE 15 20 8 11 1009.6 1007.2 0.0
26/10:00pm 23.0 21.8 17.5 71 3.5 ENE 20 26 11 14 1009.5 1007.1 0.0
26/09:30pm 23.6 21.9 17.1 67 4.1 ENE 22 30 12 16 1009.2 1006.8 0.0
26/09:00pm 24.1 22.6 16.4 62 4.8 ENE 19 26 10 14 1008.9 1006.5 0.0
26/08:30pm 25.1 22.0 14.6 52 6.4 ENE 24 32 13 17 1008.7 1006.3 0.0
26/08:00pm 25.4 24.0 14.5 51 6.6 ENE 15 22 8 12 1008.3 1005.9 0.0
26/07:30pm 26.2 24.0 14.3 48 7.2 NE 19 22 10 12 1007.9 1005.5 0.0
26/07:00pm 27.3 24.9 14.3 45 7.9 ENE 20 28 11 15 1007.4 1005.0 0.0
26/06:30pm 28.4 26.0 13.9 41 8.8 ENE 19 24 10 13 1007.0 1004.6 0.0
26/06:00pm 29.7 27.0 13.0 35 10.1 E 19 24 10 13 1006.6 1004.2 0.0
26/05:30pm 30.7 28.7 12.6 33 10.9 ESE 15 20 8 11 1006.3 1003.9 0.0
26/05:00pm 31.3 29.1 12.2 31 11.5 E 15 26 8 14 1006.1 1003.7 0.0
26/04:30pm 31.4 29.5 11.7 29 11.7 SE 13 24 7 13 1006.2 1003.8 0.0
26/04:00pm 31.6 28.4 11.9 30 11.8 E 20 30 11 16 1006.1 1003.7 0.0
26/03:30pm 31.4 28.1 11.7 29 11.7 ESE 20 30 11 16 1006.3 1003.9 0.0
26/03:00pm 32.0 28.9 11.7 28 12.1 E 19 32 10 17 1006.3 1003.9 0.0
26/02:30pm 31.6 30.5 11.9 30 11.8 ESE 9 15 5 8 1006.8 1004.4 0.0
26/02:00pm 31.8 29.9 13.1 32 11.4 ESE 15 30 8 16 1006.9 1004.5 0.0
26/01:30pm 31.3 28.9 12.6 31 11.3 E 17 28 9 15 1007.4 1005.0 0.0
26/01:00pm 30.6 29.8 13.0 34 10.7 SE 9 20 5 11 1008.0 1005.6 0.0
26/12:30pm 30.5 29.5 14.6 38 9.8 ESE 13 26 7 14 1008.3 1005.9 0.0
26/12:00pm 29.6 29.2 14.2 39 9.5 ENE 9 15 5 8 1008.7 1006.3 0.0
26/11:30am 29.6 28.4 12.9 35 10.0 E 11 35 6 19 1009.0 1006.6 0.0
26/11:00am 28.7 27.0 12.6 37 9.6 ENE 13 20 7 11 1009.4 1007.0 0.0
26/10:30am 28.0 25.4 12.0 37 9.4 E 17 28 9 15 1009.8 1007.5 0.0
26/10:00am 27.5 25.7 13.4 41 8.5 E 15 26 8 14 1010.2 1007.9 0.0
26/09:30am 26.5 25.4 14.3 47 7.4 ENE 13 17 7 9 1010.4 1008.0 0.0
26/09:00am 25.4 24.2 13.9 49 6.9 NNE 13 20 7 11 1010.2 1007.9 0.0
26/08:30am 24.1 23.1 14.5 55 5.8 NE 13 17 7 9 1010.7 1008.3 0.0
26/08:00am 23.0 22.2 14.0 57 5.4 NE 11 17 6 9 1010.9 1008.5 0.0
26/07:30am 22.0 22.1 15.6 67 3.9 ENE 9 13 5 7 1011.0 1008.6 0.0
26/07:00am 20.7 20.3 16.3 76 2.7 E 13 17 7 9 1010.9 1008.5 0.0
26/06:30am 18.8 18.4 16.2 85 1.6 E 13 17 7 9 1010.8 1008.4 0.0
26/06:00am 16.8 17.4 15.8 94 0.6 ESE 7 9 4 5 1010.7 1008.3 0.0
26/05:30am 14.7 13.8 13.7 94 0.6 ESE 11 13 6 7 1010.6 1008.2 0.0
26/05:00am 14.8 14.3 13.7 93 0.6 SE 9 11 5 6 1010.1 1007.8 0.0
26/04:30am 15.5 15.7 14.2 92 0.8 ESE 6 7 3 4 1009.8 1007.5 0.0
26/04:00am 15.8 15.5 14.5 92 0.8 ESE 9 11 5 6 1009.5 1007.1 0.0
26/03:30am 16.3 15.6 15.3 94 0.6 ESE 13 13 7 7 1009.5 1007.1 0.0
26/03:00am 15.9 15.2 14.4 91 0.9 ESE 11 13 6 7 1009.6 1007.2 0.0
26/02:30am 16.7 17.1 14.7 88 1.2 ESE 6 9 3 5 1009.9 1007.6 0.0
26/02:00am 17.6 17.6 15.2 86 1.4 ENE 9 11 5 6 1009.9 1007.6 0.0
26/01:30am 18.1 17.6 15.9 87 1.3 ENE 13 15 7 8 1010.1 1007.8 0.0
26/01:00am 18.7 18.6 16.1 85 1.6 NE 11 15 6 8 1010.4 1008.0 0.0
26/12:30am 19.1 18.3 16.1 83 1.8 NE 15 19 8 10 1010.6 1008.2 0.0
26/12:00am 19.7 18.6 16.3 81 2.1 NE 17 20 9 11 1010.9 1008.5 0.0
 
Date/Time
EST
Temp
°C
App
Temp
°C
Dew
Point
°C
Rel
Hum
%
Delta-T
°C
Wind Press
QNH
hPa
Press
MSL
hPa
Rain since
9am
mm
Dir  Spd
km/h
Gust
km/h
Spd
kts
Gust
kts
25/11:30pm 19.4 19.0 16.2 82 1.9 NE 13 17 7 9 1011.0 1008.6 0.0
25/11:00pm 20.0 19.3 16.4 80 2.2 ENE 15 19 8 10 1011.3 1008.9 0.0
25/10:30pm 20.4 20.0 16.2 77 2.6 NE 13 15 7 8 1011.4 1009.0 0.0
25/10:00pm 21.1 20.1 16.7 76 2.7 NE 17 26 9 14 1011.4 1009.0 0.0
25/09:30pm 21.5 19.6 16.7 74 3.0 ENE 22 26 12 14 1011.1 1008.7 0.0
25/09:00pm 22.1 19.4 16.6 71 3.4 ENE 26 35 14 19 1010.9 1008.5 0.0
25/08:30pm 22.6 21.0 16.6 69 3.7 ENE 20 28 11 15 1010.7 1008.3 0.0
25/08:00pm 23.3 21.9 17.1 68 3.9 NE 20 26 11 14 1010.2 1007.9 0.0
25/07:30pm 24.0 22.4 17.5 67 4.1 ENE 22 32 12 17 1009.9 1007.6 0.0
25/07:00pm 24.8 22.3 17.0 62 4.9 ENE 26 33 14 18 1009.6 1007.2 0.0
25/06:30pm 26.5 24.4 16.1 52 6.5 NE 22 28 12 15 1009.2 1006.8 0.0
25/06:00pm 27.6 25.6 15.6 48 7.5 ENE 20 28 11 15 1008.9 1006.5 0.0
25/05:30pm 28.7 26.4 14.1 40 8.9 ENE 19 30 10 16 1008.7 1006.3 0.0
25/05:00pm 28.9 26.5 14.3 40 9.0 E 20 30 11 16 1008.6 1006.2 0.0
25/04:30pm 29.6 27.4 15.0 41 9.1 NE 20 30 11 16 1008.7 1006.3 0.0
25/04:00pm 29.7 28.6 15.4 42 8.9 E 15 26 8 14 1008.9 1006.5 0.0
25/03:30pm 28.1 25.3 14.3 42 8.4 ENE 22 33 12 18 1009.2 1006.8 0.0
25/03:00pm 29.5 26.9 16.0 44 8.5 ENE 24 37 13 20 1009.6 1007.2 0.0
25/02:30pm 29.2 27.6 16.4 46 8.1 E 20 30 11 16 1010.1 1007.8 0.0
25/02:00pm 29.3 27.7 17.5 49 7.6 ENE 22 32 12 17 1010.8 1008.4 0.0
25/01:30pm 29.0 27.5 16.2 46 8.1 ESE 19 32 10 17 1011.0 1008.6 0.0
25/01:00pm 28.6 28.3 16.5 48 7.7 ENE 13 22 7 12 1011.5 1009.1 0.0
25/12:30pm 27.9 27.4 16.8 50 7.0 E 15 26 8 14 1012.0 1009.7 0.0
25/12:00pm 27.6 26.8 17.2 53 6.6 E 17 24 9 13 1012.5 1010.2 0.0
25/11:30am 28.0 27.1 17.8 54 6.6 ENE 19 28 10 15 1013.0 1010.6 0.0
25/11:00am 27.3 26.1 17.5 55 6.3 E 20 26 11 14 1013.3 1010.9 0.0
25/10:30am 26.6 25.2 17.1 56 6.0 E 20 30 11 16 1013.5 1011.1 0.0
25/10:00am 26.3 25.1 17.4 58 5.7 E 20 30 11 16 1013.7 1011.3 0.0
25/09:30am 26.2 24.7 16.7 56 6.0 ENE 20 26 11 14 1013.7 1011.3 0.0
25/09:00am 25.5 23.9 16.6 58 5.6 ENE 20 28 11 15 1013.8 1011.4 0.0
25/08:30am 24.7 23.5 17.4 64 4.6 ENE 20 30 11 16 1014.0 1011.6 0.0
25/08:00am 23.5 21.7 17.0 67 4.1 ENE 22 28 12 15 1013.9 1011.5 0.0
25/07:30am 22.7 21.4 17.2 71 3.4 E 20 28 11 15 1014.2 1011.8 0.0
25/07:00am 21.5 21.6 17.5 78 2.5 E 13 17 7 9 1014.3 1012.0 0.0
25/06:30am 19.6 19.2 17.2 86 1.5 ESE 15 19 8 10 1013.8 1011.4 0.0
25/06:00am 18.3 18.3 17.1 93 0.7 E 13 20 7 11 1013.5 1011.1 0.0
25/05:30am 17.2 17.0 16.6 96 0.4 ENE 13 15 7 8 1013.1 1010.7 0.0
25/05:00am 16.9 16.5 16.3 96 0.4 E 13 17 7 9 1012.8 1010.5 0.0
25/04:30am 16.5 15.8 15.5 94 0.6 SE 13 15 7 8 1013.0 1010.6 0.0
25/04:00am 17.0 17.1 15.5 91 0.9 SE 9 11 5 6 1012.8 1010.5 0.0
25/03:30am 18.3 18.6 17.0 92 0.8 ENE 11 15 6 8 1012.5 1010.2 0.0
25/03:00am 18.6 17.8 17.1 91 0.9 ENE 17 20 9 11 1012.4 1010.1 0.0
25/02:30am 18.8 17.9 16.9 89 1.2 ENE 17 20 9 11 1012.5 1010.2 0.0
25/02:00am 19.3 18.2 17.3 88 1.2 ENE 19 22 10 12 1012.8 1010.5 0.0
25/01:30am 19.0 18.2 17.0 88 1.2 ENE 17 20 9 11 1013.3 1010.9 0.0
25/01:00am 19.5 18.7 17.1 86 1.5 ENE 17 22 9 12 1013.6 1011.2 0.0
25/12:30am 20.1 18.7 16.9 82 2.0 ENE 20 26 11 14 1013.9 1011.5 0.0
25/12:00am 20.3 18.8 16.7 80 2.2 ENE 20 26 11 14 1014.2 1011.8 0.0
 
Date/Time
EST
Temp
°C
App
Temp
°C
Dew
Point
°C
Rel
Hum
%
Delta-T
°C
Wind Press
QNH
hPa
Press
MSL
hPa
Rain since
9am
mm
Dir  Spd
km/h
Gust
km/h
Spd
kts
Gust
kts
24/11:30pm 20.8 19.2 16.6 77 2.6 E 20 24 11 13 1014.6 1012.3 0.0

Latest Capital City Observations: Canberra | Sydney | Melbourne | Brisbane | Adelaide | Perth | Hobart | Darwin

Other formats

Comma delimited format used in spreadsheet applications
http://www.bom.gov.au/fwo/IDQ60901/IDQ60901.94552.axf

JavaScript Object Notation format (JSON) in row-major order
http://www.bom.gov.au/fwo/IDQ60901/IDQ60901.94552.json

Data quality

Most of these data are generated automatically and are frequently updated. Quality checks on data are not normally performed. It is possible for incorrect values to appear. Refer to information at About Latest Weather Observations and please check the disclaimer before using these data.